createdAt,value
2018-08-25T12:04:14.705Z,945.98
2018-08-25T12:07:22.153Z,945.96
2018-08-25T12:08:33.469Z,945.99
2018-08-25T12:11:01.574Z,945.98
2018-08-25T12:12:00.677Z,946.00
2018-08-25T12:12:59.598Z,945.99
2018-08-25T12:13:59.509Z,945.97
2018-08-25T12:14:59.493Z,946.00
2018-08-25T12:15:59.481Z,946.02
2018-08-25T12:16:59.575Z,945.96
2018-08-25T12:17:59.890Z,945.93
2018-08-25T12:18:59.470Z,945.91
2018-08-25T12:19:59.432Z,945.90
2018-08-25T12:20:59.515Z,945.91
2018-08-25T12:21:59.410Z,945.97
2018-08-25T12:22:59.409Z,946.00
2018-08-25T12:23:59.539Z,945.99
2018-08-25T12:24:59.385Z,946.09
2018-08-25T12:25:59.373Z,946.01
2018-08-25T12:26:59.354Z,946.07
2018-08-25T12:27:59.371Z,946.07
2018-08-25T12:28:59.366Z,946.10
2018-08-25T12:30:00.277Z,946.12
2018-08-25T12:31:02.284Z,946.08
2018-08-25T12:31:59.359Z,946.13
2018-08-25T12:32:59.341Z,946.12
2018-08-25T12:33:59.294Z,946.19
2018-08-25T12:34:59.399Z,946.11
2018-08-25T12:36:00.251Z,946.11
2018-08-25T12:37:26.678Z,946.17
2018-08-25T12:38:21.131Z,946.09
2018-08-25T12:38:59.519Z,946.13
2018-08-25T12:41:38.691Z,946.16
2018-08-25T12:42:47.790Z,946.14
2018-08-25T12:43:35.500Z,946.19
2018-08-25T12:45:34.799Z,946.17
2018-08-25T12:46:34.759Z,946.18
2018-08-25T12:47:34.646Z,946.21
2018-08-25T12:49:49.995Z,946.18
2018-08-25T15:57:36.822Z,946.23
2018-08-25T15:58:36.766Z,946.24
2018-08-25T16:00:46.506Z,946.17
2018-08-25T16:01:46.445Z,946.19
2018-08-25T16:02:46.447Z,946.30
2018-08-25T16:03:46.416Z,946.24
2018-08-25T16:04:46.407Z,946.24
2018-08-25T16:05:46.431Z,946.29
2018-08-25T16:06:46.389Z,946.30
2018-08-25T16:07:46.373Z,946.29
2018-08-25T16:08:46.380Z,946.32
2018-08-25T16:09:46.354Z,946.27
2018-08-25T16:10:46.384Z,946.28
2018-08-25T16:11:46.340Z,946.22
2018-08-25T16:12:46.335Z,946.29
2018-08-25T16:13:46.316Z,946.28
2018-08-25T16:15:58.002Z,946.34
2018-08-25T16:16:57.970Z,946.34
2018-08-25T16:17:57.979Z,946.39
2018-08-25T16:18:57.936Z,946.40
2018-08-25T16:19:58.100Z,946.33
2018-08-25T16:20:57.960Z,946.30
2018-08-25T16:21:57.908Z,946.24
2018-08-25T16:22:57.877Z,946.20
2018-08-25T16:23:57.865Z,946.17
2018-08-25T16:24:57.856Z,946.23
2018-08-25T16:25:57.872Z,946.18
2018-08-25T16:26:57.931Z,946.21
2018-08-25T16:27:57.821Z,946.26
2018-08-25T16:28:57.815Z,946.25
2018-08-25T16:31:08.292Z,946.23
2018-08-25T16:32:07.535Z,946.26
2018-08-25T16:33:07.539Z,946.27
2018-08-25T16:34:07.512Z,946.27
2018-08-25T16:35:07.495Z,946.29
2018-08-25T16:36:07.503Z,946.29
2018-08-25T16:37:07.482Z,946.25
2018-08-25T16:38:07.481Z,946.26
2018-08-25T16:39:07.485Z,946.26
2018-08-25T16:40:07.443Z,946.23
2018-08-25T16:41:07.452Z,946.22
2018-08-25T16:42:07.412Z,946.24
2018-08-25T16:43:07.409Z,946.21
2018-08-25T16:44:07.400Z,946.25
2018-08-25T16:46:18.763Z,946.21
2018-08-25T16:47:18.738Z,946.18
2018-08-25T16:48:18.777Z,946.21
2018-08-25T16:49:18.809Z,946.22
2018-08-25T16:50:18.701Z,946.22
2018-08-25T16:51:18.694Z,946.21
2018-08-25T16:52:18.676Z,946.25
2018-08-25T16:53:18.691Z,946.26
2018-08-25T16:54:18.640Z,946.24
2018-08-25T16:55:18.741Z,946.24
2018-08-25T16:56:18.623Z,946.28
2018-08-25T16:57:18.618Z,946.27
2018-08-25T16:58:18.604Z,946.30
2018-08-25T16:59:18.638Z,946.32
2018-08-25T17:01:30.249Z,946.25
2018-08-25T17:02:30.212Z,946.25
2018-08-25T17:03:30.210Z,946.22
2018-08-25T17:04:30.178Z,946.28
2018-08-25T17:05:30.158Z,946.23
2018-08-25T17:06:30.143Z,946.23
2018-08-25T17:07:30.143Z,946.23
2018-08-25T17:08:30.174Z,946.21
2018-08-25T17:09:30.117Z,946.21
2018-08-25T17:10:30.125Z,946.22
2018-08-25T17:11:30.104Z,946.17
2018-08-25T17:12:30.093Z,946.17
2018-08-25T17:13:30.073Z,946.15
2018-08-25T17:15:39.798Z,946.20
2018-08-25T17:16:39.778Z,946.13
2018-08-25T17:17:39.796Z,946.15
2018-08-25T17:18:39.780Z,946.22
2018-08-25T17:19:39.776Z,946.16
2018-08-25T17:20:39.725Z,946.21
2018-08-25T17:21:39.747Z,946.27
2018-08-25T17:22:39.698Z,946.27
2018-08-25T17:23:39.687Z,946.28
2018-08-25T17:24:39.754Z,946.28
2018-08-25T17:25:39.677Z,946.35
2018-08-25T17:26:39.664Z,946.33
2018-08-25T17:27:39.658Z,946.33
2018-08-25T17:28:39.643Z,946.35
2018-08-25T17:30:51.050Z,946.41
2018-08-25T17:31:51.006Z,946.46
2018-08-25T17:32:50.994Z,946.51
2018-08-25T17:33:50.976Z,946.45
2018-08-25T17:34:50.966Z,946.48
2018-08-25T17:35:50.994Z,946.47
2018-08-25T17:36:51.051Z,946.50
2018-08-25T17:37:51.115Z,946.52
2018-08-25T17:38:51.120Z,946.56
2018-08-25T17:39:51.008Z,946.52
2018-08-25T17:40:50.983Z,946.47
2018-08-25T17:41:51.626Z,946.44
2018-08-25T17:42:50.877Z,946.52
2018-08-25T17:43:50.875Z,946.54
2018-08-25T17:46:00.738Z,946.56
2018-08-25T17:47:00.683Z,946.58
2018-08-25T17:48:00.678Z,946.57
2018-08-25T17:49:00.620Z,946.60
2018-08-25T17:50:00.615Z,946.64
2018-08-25T17:51:00.657Z,946.65
2018-08-25T17:52:00.572Z,946.67
2018-08-25T17:53:00.854Z,946.68
2018-08-25T17:54:06.357Z,946.68
2018-08-25T17:55:07.319Z,946.68
2018-08-25T17:56:01.488Z,946.69
2018-08-25T17:57:00.559Z,946.68
2018-08-25T17:58:00.460Z,946.63
2018-08-25T17:59:01.329Z,946.66
2018-08-25T18:02:08.337Z,946.73
2018-08-25T18:03:08.320Z,946.72
2018-08-25T18:04:13.152Z,946.76
2018-08-25T18:05:10.953Z,946.80
2018-08-25T18:06:09.220Z,946.81
2018-08-25T18:12:30.110Z,947.02
2018-08-25T18:13:20.036Z,947.07
2018-08-25T18:14:18.992Z,947.09
2018-08-25T18:17:25.408Z,947.05
2018-08-25T18:18:19.445Z,947.07
2018-08-25T18:19:19.826Z,947.08
2018-08-25T18:20:19.025Z,947.09
2018-08-25T18:21:18.994Z,947.15
2018-08-25T18:22:20.035Z,947.16
2018-08-25T18:23:19.036Z,947.12
2018-08-25T18:24:19.976Z,947.21
2018-08-25T18:25:19.957Z,947.24
2018-08-25T18:26:19.984Z,947.25
2018-08-25T18:27:18.947Z,947.31
2018-08-25T18:28:20.234Z,947.38
2018-08-25T18:29:19.915Z,947.37
2018-08-25T18:31:29.802Z,947.36
2018-08-25T18:32:29.970Z,947.37
2018-08-25T18:33:51.677Z,947.31
2018-08-25T18:34:30.356Z,947.34
2018-08-25T18:35:29.585Z,947.32
2018-08-25T18:36:50.181Z,947.38
2018-08-25T18:37:31.573Z,947.43
2018-08-25T18:38:29.655Z,947.43
2018-08-25T18:39:30.436Z,947.43
2018-08-25T18:40:29.531Z,947.41
2018-08-25T18:41:29.565Z,947.46
2018-08-25T18:42:29.531Z,947.49
2018-08-25T18:43:31.384Z,947.54
2018-08-25T18:44:29.537Z,947.53
2018-08-25T18:46:42.551Z,947.55
2018-08-25T18:47:40.960Z,947.56
2018-08-25T18:48:41.120Z,947.61
2018-08-25T18:49:40.850Z,947.60
2018-08-25T18:50:40.896Z,947.63
2018-08-25T18:51:40.794Z,947.60
2018-08-25T18:52:40.816Z,947.57
2018-08-25T18:53:40.783Z,947.63
2018-08-25T18:54:40.844Z,947.61
2018-08-25T18:55:40.719Z,947.63
2018-08-25T18:56:40.750Z,947.62
2018-08-25T18:57:40.715Z,947.64
2018-08-25T18:58:42.470Z,947.65
2018-08-25T18:59:40.690Z,947.69
2018-08-25T19:01:53.310Z,947.73
2018-08-25T19:02:51.976Z,947.73
2018-08-25T19:03:51.959Z,947.72
2018-08-25T19:04:51.942Z,947.75
2018-08-25T19:05:51.868Z,947.76
2018-08-25T19:06:51.842Z,947.77
2018-08-25T19:07:51.837Z,947.74
2018-08-25T19:08:51.824Z,947.80
2018-08-25T19:09:51.839Z,947.85
2018-08-25T19:10:51.799Z,947.82
2018-08-25T19:11:51.793Z,947.86
2018-08-25T19:12:51.776Z,947.89
2018-08-25T19:13:51.762Z,947.86
2018-08-25T19:14:51.757Z,947.83
2018-08-25T19:17:03.188Z,947.82
2018-08-25T19:18:03.129Z,947.87
2018-08-25T19:19:03.155Z,947.89
2018-08-25T19:20:03.174Z,947.84
2018-08-25T19:21:03.081Z,947.87
2018-08-25T19:22:03.144Z,947.86
2018-08-25T19:23:03.079Z,947.88
2018-08-25T19:24:03.147Z,947.86
2018-08-25T19:25:03.099Z,947.90
2018-08-25T19:26:03.088Z,947.92
2018-08-25T19:27:03.035Z,947.89
2018-08-25T19:28:03.008Z,947.88
2018-08-25T19:29:03.033Z,947.88
2018-08-25T19:30:02.985Z,947.95
2018-08-25T19:32:21.555Z,948.09
2018-08-25T19:33:16.307Z,948.05
2018-08-25T19:34:21.409Z,948.04
2018-08-25T19:35:16.319Z,948.03
2018-08-25T19:36:15.277Z,948.04
2018-08-25T19:37:16.915Z,948.03
2018-08-25T19:38:16.269Z,948.05
2018-08-25T19:39:15.275Z,948.03
2018-08-25T19:40:16.293Z,948.02
2018-08-25T19:41:16.285Z,948.07
2018-08-25T19:42:16.245Z,948.08
2018-08-25T19:43:15.201Z,948.07
2018-08-25T19:44:16.184Z,948.08
2018-08-25T19:46:37.803Z,948.07
2018-08-25T19:47:26.684Z,948.10
2018-08-25T19:48:27.745Z,948.08
2018-08-25T19:49:28.152Z,948.13
2018-08-25T19:50:26.612Z,948.15
2018-08-25T19:51:27.571Z,948.19
2018-08-25T19:52:27.567Z,948.20
2018-08-25T19:53:26.597Z,948.25
2018-08-25T19:54:26.553Z,948.21
2018-08-25T19:55:27.544Z,948.12
2018-08-25T19:56:26.530Z,948.11
2018-08-25T19:57:27.498Z,948.07
2018-08-25T19:58:26.524Z,948.09
2018-08-25T19:59:27.488Z,948.06
2018-08-25T20:02:07.506Z,948.07
2018-08-25T20:02:39.895Z,947.99
2018-08-25T20:03:39.887Z,948.01
2018-08-25T20:04:39.923Z,948.02
2018-08-25T20:05:40.028Z,948.00
2018-08-25T20:06:38.843Z,948.04
2018-08-25T20:07:38.832Z,948.06
2018-08-25T20:08:40.923Z,948.05
2018-08-25T20:09:39.801Z,948.10
2018-08-25T20:10:38.811Z,948.09
2018-08-25T20:11:38.798Z,948.09
2018-08-25T20:12:38.780Z,948.09
2018-08-25T20:13:38.769Z,948.10
2018-08-25T20:14:38.988Z,948.08
2018-08-25T20:16:56.376Z,948.15
2018-08-25T20:17:50.662Z,948.15
2018-08-25T20:18:50.707Z,948.19
2018-08-25T20:19:51.200Z,948.15
2018-08-25T20:20:51.759Z,948.23
2018-08-25T20:21:52.229Z,948.19
2018-08-25T20:22:51.566Z,948.19
2018-08-25T20:23:50.529Z,948.19
2018-08-25T20:24:51.516Z,948.19
2018-08-25T20:25:50.505Z,948.24
2018-08-25T20:26:50.527Z,948.20
2018-08-25T20:27:50.537Z,948.22
2018-08-25T20:28:50.472Z,948.15
2018-08-25T20:29:50.497Z,948.18
2018-08-25T20:32:02.100Z,948.15
2018-08-25T20:33:02.057Z,948.15
2018-08-25T20:34:01.982Z,948.13
2018-08-25T20:35:02.043Z,948.14
2018-08-25T20:36:01.915Z,948.14
2018-08-25T20:37:01.890Z,948.10
2018-08-25T20:38:01.948Z,948.09
2018-08-25T20:39:01.875Z,948.08
2018-08-25T20:40:01.940Z,948.07
2018-08-25T20:41:01.863Z,948.04
2018-08-25T20:42:01.829Z,948.04
2018-08-25T20:43:01.820Z,948.04
2018-08-25T20:44:01.811Z,948.11
2018-08-25T20:45:01.799Z,948.12
2018-08-25T20:47:13.015Z,948.17
2018-08-25T20:48:13.030Z,948.19
2018-08-25T20:49:12.997Z,948.24
2018-08-25T20:50:12.930Z,948.27
2018-08-25T20:51:13.049Z,948.31
2018-08-25T20:52:12.890Z,948.29
2018-08-25T20:53:12.888Z,948.33
2018-08-25T20:54:12.868Z,948.37
2018-08-25T20:55:12.841Z,948.38
2018-08-25T20:56:12.832Z,948.40
2018-08-25T20:57:12.854Z,948.46
2018-08-25T20:58:12.819Z,948.44
2018-08-25T20:59:12.797Z,948.46
2018-08-25T21:00:12.773Z,948.44
2018-08-25T21:02:23.926Z,948.41
2018-08-25T21:03:23.886Z,948.44
2018-08-25T21:04:23.820Z,948.44
2018-08-25T21:05:23.884Z,948.47
2018-08-25T21:06:23.807Z,948.45
2018-08-25T21:07:23.754Z,948.45
2018-08-25T21:08:23.758Z,948.42
2018-08-25T21:09:23.728Z,948.46
2018-08-25T21:10:23.721Z,948.41
2018-08-25T21:11:23.717Z,948.45
2018-08-25T21:12:23.734Z,948.45
2018-08-25T21:13:23.681Z,948.45
2018-08-25T21:14:23.700Z,948.45
2018-08-25T21:15:23.663Z,948.44
2018-08-25T21:17:35.342Z,948.42
2018-08-25T21:18:35.331Z,948.48
2018-08-25T21:19:35.255Z,948.46
2018-08-25T21:20:35.295Z,948.43
2018-08-25T21:21:35.201Z,948.44
2018-08-25T21:22:35.164Z,948.46
2018-08-25T21:23:35.162Z,948.48
2018-08-25T21:24:35.146Z,948.39
2018-08-25T21:25:35.168Z,948.44
2018-08-25T21:26:35.141Z,948.43
2018-08-25T21:27:35.125Z,948.47
2018-08-25T21:28:35.124Z,948.46
2018-08-25T21:29:35.089Z,948.46
2018-08-25T21:30:35.073Z,948.52
2018-08-25T21:32:47.336Z,948.55
2018-08-25T21:33:47.282Z,948.66
2018-08-25T21:34:47.286Z,948.69
2018-08-25T21:35:47.212Z,948.78
2018-08-25T21:36:47.175Z,948.75
2018-08-25T21:37:47.152Z,948.74
2018-08-25T21:38:47.151Z,948.77
2018-08-25T21:39:47.168Z,948.80
2018-08-25T21:40:47.191Z,948.82
2018-08-25T21:41:47.117Z,948.85
2018-08-25T21:42:47.092Z,948.85
2018-08-25T21:43:47.076Z,948.89
2018-08-25T21:44:47.077Z,948.86
2018-08-25T21:46:58.442Z,948.83
2018-08-25T21:47:58.412Z,948.84
2018-08-25T21:48:58.405Z,948.86
2018-08-25T21:49:58.424Z,948.81
2018-08-25T21:50:58.316Z,948.84
2018-08-25T21:51:58.286Z,948.82
2018-08-25T21:52:58.292Z,948.74
2018-08-25T21:53:58.313Z,948.81
2018-08-25T21:54:58.260Z,948.83
2018-08-25T21:55:58.256Z,948.79
2018-08-25T21:56:58.228Z,948.80
2018-08-25T21:57:58.216Z,948.75
2018-08-25T21:58:58.209Z,948.76
2018-08-25T21:59:58.228Z,948.78
2018-08-25T22:02:09.902Z,948.72
2018-08-25T22:03:09.834Z,948.78
2018-08-25T22:04:09.778Z,948.83
2018-08-25T22:05:09.845Z,948.83
2018-08-25T22:06:09.708Z,948.82
2018-08-25T22:07:09.681Z,948.81
2018-08-25T22:08:09.680Z,948.83
2018-08-25T22:09:09.660Z,948.79
2018-08-25T22:10:09.676Z,948.82
2018-08-25T22:11:09.678Z,948.82
2018-08-25T22:12:09.637Z,948.79
2018-08-25T22:13:09.624Z,948.79
2018-08-25T22:14:09.609Z,948.72
2018-08-25T22:15:09.631Z,948.78
2018-08-25T22:17:21.001Z,948.78
2018-08-25T22:18:20.959Z,948.78
2018-08-25T22:19:20.922Z,948.75
2018-08-25T22:20:20.847Z,948.74
2018-08-25T22:21:20.999Z,948.75
2018-08-25T22:22:20.842Z,948.76
2018-08-25T22:23:20.786Z,948.73
2018-08-25T22:24:20.825Z,948.72
2018-08-25T22:25:20.766Z,948.70
2018-08-25T22:26:20.761Z,948.74
2018-08-25T22:27:20.753Z,948.72
2018-08-25T22:28:20.746Z,948.73
2018-08-25T22:29:20.750Z,948.72
2018-08-25T22:30:20.712Z,948.77
2018-08-25T22:32:32.001Z,948.77
2018-08-25T22:33:31.972Z,948.77
2018-08-25T22:34:31.901Z,948.77
2018-08-25T22:35:31.940Z,948.80
2018-08-25T22:36:31.876Z,948.80
2018-08-25T22:37:31.858Z,948.85
2018-08-25T22:38:31.909Z,948.85
2018-08-25T22:39:31.810Z,948.83
2018-08-25T22:40:31.802Z,948.83
2018-08-25T22:41:31.810Z,948.85
2018-08-25T22:42:31.799Z,948.86
2018-08-25T22:43:31.807Z,948.87
2018-08-25T22:44:31.756Z,948.82
2018-08-25T22:45:31.758Z,948.83
2018-08-25T22:47:44.384Z,948.85
2018-08-25T22:48:44.385Z,948.90
2018-08-25T22:49:44.257Z,948.90
2018-08-25T22:50:44.344Z,948.88
2018-08-25T22:51:44.230Z,948.89
2018-08-25T22:52:44.193Z,948.92
2018-08-25T22:53:44.259Z,948.96
2018-08-25T22:54:44.169Z,948.97
2018-08-25T22:55:44.185Z,949.01
2018-08-25T22:56:44.203Z,949.03
2018-08-25T22:57:44.156Z,948.99
2018-08-25T22:58:44.119Z,949.04
2018-08-25T22:59:44.115Z,949.09
2018-08-25T23:00:44.136Z,949.11
2018-08-25T23:02:55.668Z,949.18
2018-08-25T23:03:55.701Z,949.19
2018-08-25T23:04:55.655Z,949.12
2018-08-25T23:05:55.540Z,949.13
2018-08-25T23:06:55.550Z,949.07
2018-08-25T23:07:55.523Z,949.09
2018-08-25T23:08:55.496Z,949.09
2018-08-25T23:09:55.481Z,949.08
2018-08-25T23:10:55.493Z,949.14
2018-08-25T23:11:55.505Z,949.09
2018-08-25T23:12:55.444Z,949.05
2018-08-25T23:13:55.429Z,949.04
2018-08-25T23:14:55.427Z,949.03
2018-08-25T23:17:05.261Z,949.06
2018-08-25T23:18:05.157Z,949.07
2018-08-25T23:19:05.174Z,949.06
2018-08-25T23:20:05.241Z,949.13
2018-08-25T23:21:05.106Z,949.16
2018-08-25T23:22:05.075Z,949.24
2018-08-25T23:23:05.077Z,949.22
2018-08-25T23:24:05.096Z,949.24
2018-08-25T23:25:05.044Z,949.17
2018-08-25T23:26:05.044Z,949.16
2018-08-25T23:27:05.039Z,949.10
2018-08-25T23:28:05.012Z,949.16
2018-08-25T23:29:05.035Z,949.20
2018-08-25T23:30:04.989Z,949.23
2018-08-25T23:32:16.539Z,949.24
2018-08-25T23:33:16.171Z,949.23
2018-08-25T23:34:16.090Z,949.18
2018-08-25T23:35:16.128Z,949.18
2018-08-25T23:36:16.053Z,949.12
2018-08-25T23:37:16.013Z,949.09
2018-08-25T23:38:16.055Z,949.12
2018-08-25T23:39:15.997Z,949.19
2018-08-25T23:40:15.989Z,949.17
2018-08-25T23:41:15.993Z,949.23
2018-08-25T23:42:15.978Z,949.31
2018-08-25T23:43:15.996Z,949.28
2018-08-25T23:44:15.937Z,949.27
2018-08-25T23:45:15.927Z,949.25
2018-08-25T23:47:27.603Z,949.23
2018-08-25T23:48:27.543Z,949.32
2018-08-25T23:49:27.556Z,949.32
2018-08-25T23:50:27.568Z,949.32
2018-08-25T23:51:27.478Z,949.31
2018-08-25T23:52:27.524Z,949.32
2018-08-25T23:53:27.428Z,949.29
2018-08-25T23:54:27.389Z,949.33
2018-08-25T23:55:27.433Z,949.29
2018-08-25T23:56:27.372Z,949.31
2018-08-25T23:57:27.353Z,949.27
2018-08-25T23:58:27.356Z,949.26
2018-08-25T23:59:27.331Z,949.26
